Time;durP1;ratioP1;P1;durP2;ratioP2;P2;SDS_P1;SDS_P2;PMS_P1;PMS_P2;Temp;Humidity;BMP_temperature;BMP_pressure;BME280_temperature;BME280_humidity;BME280_pressure;Samples;Min_cycle;Max_cycle;Signal;HPM_P1;HPM_P2
2021/11/21 00:00:59;;;;;;;20.85;9.65;;;9.20;99.90;;;;;;6127984;23;20049;-80
2021/11/21 00:03:25;;;;;;;17.80;9.55;;;9.40;99.90;;;;;;6126905;23;20017;-81
2021/11/21 00:05:50;;;;;;;18.58;9.57;;;9.20;99.90;;;;;;6126759;23;20018;-81
2021/11/21 00:08:16;;;;;;;20.02;9.38;;;9.20;99.90;;;;;;6165728;23;20017;-81
2021/11/21 00:10:44;;;;;;;18.55;9.70;;;9.20;99.90;;;;;;6131884;23;20009;-81
2021/11/21 00:13:10;;;;;;;17.63;9.15;;;9.20;99.90;;;;;;6155925;23;20009;-81
2021/11/21 00:15:54;;;;;;;19.75;9.52;;;9.20;99.90;;;;;;6155023;23;20012;-81
2021/11/21 00:18:20;;;;;;;21.63;9.47;;;9.20;99.90;;;;;;6154392;23;20496;-80
2021/11/21 00:20:46;;;;;;;19.95;9.90;;;9.20;99.90;;;;;;6155385;23;20017;-80
2021/11/21 00:23:12;;;;;;;19.45;8.88;;;9.20;99.90;;;;;;6131311;23;20021;-81
2021/11/21 00:25:38;;;;;;;15.07;9.15;;;9.20;99.90;;;;;;6153185;23;20032;-81
2021/11/21 00:28:04;;;;;;;19.10;9.57;;;9.20;99.90;;;;;;6154496;23;20027;-80
2021/11/21 00:30:30;;;;;;;19.67;9.20;;;9.20;99.90;;;;;;6153492;23;20023;-80
2021/11/21 00:32:56;;;;;;;20.60;9.27;;;9.20;99.90;;;;;;6153757;23;20017;-81
2021/11/21 00:35:22;;;;;;;18.10;9.40;;;9.20;99.90;;;;;;6129183;23;20088;-80
2021/11/21 00:37:47;;;;;;;15.30;8.90;;;9.20;99.90;;;;;;6155408;23;20013;-80
2021/11/21 00:40:13;;;;;;;15.57;9.50;;;9.20;99.90;;;;;;6154988;23;20016;-80
2021/11/21 00:42:39;;;;;;;18.10;9.63;;;9.20;99.90;;;;;;6129245;23;20075;-81
2021/11/21 00:45:07;;;;;;;16.27;9.48;;;9.20;99.90;;;;;;6129794;23;20126;-81
2021/11/21 00:47:38;;;;;;;16.35;8.90;;;9.20;99.90;;;;;;6153973;23;20322;-80
2021/11/21 00:50:05;;;;;;;14.40;9.18;;;9.20;99.90;;;;;;6154535;23;20013;-80
2021/11/21 00:52:33;;;;;;;15.52;9.30;;;9.20;99.90;;;;;;6155324;23;20015;-80
2021/11/21 00:55:10;;;;;;;12.45;9.05;;;9.30;99.90;;;;;;6155150;23;20040;-80
2021/11/21 00:57:39;;;;;;;18.67;8.50;;;9.20;99.90;;;;;;6130181;23;20013;-80
2021/11/21 01:00:09;;;;;;;15.30;8.80;;;9.20;99.90;;;;;;6128632;23;20019;-80
2021/11/21 01:02:39;;;;;;;16.50;8.45;;;9.20;99.90;;;;;;6155175;23;20334;-81
2021/11/21 01:05:07;;;;;;;18.92;9.13;;;9.30;99.90;;;;;;6155532;23;20067;-80
2021/11/21 01:07:36;;;;;;;18.77;8.63;;;9.20;99.90;;;;;;6131263;23;20013;-80
2021/11/21 01:10:09;;;;;;;13.35;8.60;;;9.30;99.90;;;;;;6156602;23;20412;-80
2021/11/21 01:12:35;;;;;;;12.82;8.00;;;9.30;99.90;;;;;;6130873;23;20511;-80
2021/11/21 01:15:02;;;;;;;17.05;8.80;;;9.30;99.90;;;;;;6130679;23;20020;-81
2021/11/21 01:17:28;;;;;;;18.00;8.75;;;9.30;99.90;;;;;;6130027;23;20092;-80
2021/11/21 01:19:59;;;;;;;13.68;8.10;;;9.30;99.90;;;;;;6155890;23;20353;-80
2021/11/21 01:22:27;;;;;;;13.73;7.63;;;9.30;99.90;;;;;;6130626;23;20021;-81
2021/11/21 01:24:53;;;;;;;15.68;7.60;;;9.40;99.90;;;;;;6154347;23;20013;-81
2021/11/21 01:27:18;;;;;;;11.55;6.40;;;9.40;99.90;;;;;;6155214;23;20453;-81
2021/11/21 01:29:44;;;;;;;9.77;6.88;;;9.50;99.90;;;;;;6153952;23;20013;-81
2021/11/21 01:32:10;;;;;;;13.82;6.82;;;9.40;99.90;;;;;;6129718;23;20017;-81
2021/11/21 01:34:35;;;;;;;9.63;6.53;;;9.40;99.90;;;;;;6154818;23;20464;-80
2021/11/21 01:37:01;;;;;;;12.32;6.60;;;9.40;99.90;;;;;;6129192;23;20111;-80
2021/11/21 01:39:26;;;;;;;6.43;4.88;;;9.40;99.90;;;;;;6128651;23;20013;-81
2021/11/21 01:41:52;;;;;;;7.50;5.57;;;9.50;99.90;;;;;;6129567;23;20083;-81
2021/11/21 01:44:18;;;;;;;8.65;5.35;;;9.50;99.90;;;;;;6129411;23;20021;-80
2021/11/21 01:46:44;;;;;;;7.10;4.70;;;9.40;99.90;;;;;;6155108;23;20041;-80
2021/11/21 01:49:11;;;;;;;7.38;4.28;;;9.40;99.90;;;;;;6129232;23;20307;-80
2021/11/21 01:51:37;;;;;;;5.47;3.22;;;9.50;99.90;;;;;;6154470;23;20333;-80
2021/11/21 01:54:05;;;;;;;7.18;3.72;;;9.60;99.90;;;;;;6154092;23;20013;-80
2021/11/21 01:56:31;;;;;;;5.38;2.90;;;9.50;99.90;;;;;;6155830;23;20021;-80
2021/11/21 01:58:56;;;;;;;6.13;2.80;;;9.40;99.90;;;;;;6156879;23;20019;-80
2021/11/21 02:01:23;;;;;;;6.32;2.75;;;9.50;99.90;;;;;;6132335;23;20063;-80
2021/11/21 02:03:49;;;;;;;8.55;3.00;;;9.50;99.90;;;;;;6156848;23;20009;-80
2021/11/21 02:06:15;;;;;;;6.28;2.13;;;9.40;99.90;;;;;;6157779;23;20036;-80
2021/11/21 02:08:41;;;;;;;8.10;2.10;;;9.40;99.90;;;;;;6116632;23;20092;-80
2021/11/21 02:11:07;;;;;;;13.35;2.33;;;9.50;99.90;;;;;;6104145;23;20104;-80
2021/11/21 02:13:32;;;;;;;13.02;2.30;;;9.50;99.90;;;;;;6127948;23;20409;-80
2021/11/21 02:15:58;;;;;;;13.13;2.70;;;9.50;99.90;;;;;;6127949;23;20048;-80
2021/11/21 02:18:25;;;;;;;9.60;1.60;;;9.60;99.90;;;;;;6101849;23;20043;-80
2021/11/21 02:20:53;;;;;;;11.25;1.77;;;9.60;99.90;;;;;;6128354;23;20018;-80
2021/11/21 02:23:20;;;;;;;10.48;1.63;;;9.60;99.90;;;;;;6127458;23;20060;-80
2021/11/21 02:25:46;;;;;;;7.45;1.90;;;9.70;99.90;;;;;;6127158;23;20430;-80
2021/11/21 02:28:12;;;;;;;18.85;1.90;;;9.60;99.90;;;;;;6103181;23;20013;-80
2021/11/21 02:30:38;;;;;;;18.60;1.70;;;9.60;99.90;;;;;;6128459;23;20020;-80
2021/11/21 02:33:09;;;;;;;16.95;1.98;;;9.60;99.90;;;;;;6078003;23;20028;-80
2021/11/21 02:35:38;;;;;;;14.75;2.47;;;9.60;99.90;;;;;;6101775;23;20342;-80
2021/11/21 02:38:04;;;;;;;11.73;1.70;;;9.60;99.90;;;;;;6103331;23;20052;-80
2021/11/21 02:40:30;;;;;;;14.18;1.70;;;9.60;99.90;;;;;;6128035;23;20032;-80
2021/11/21 02:42:56;;;;;;;14.07;1.60;;;9.70;99.90;;;;;;6103530;23;20391;-80
2021/11/21 02:45:21;;;;;;;16.25;1.77;;;9.50;99.90;;;;;;6103220;23;20021;-80
2021/11/21 02:47:47;;;;;;;13.27;1.80;;;9.50;99.90;;;;;;6150880;23;20018;-80
2021/11/21 02:50:19;;;;;;;13.95;1.33;;;9.40;99.90;;;;;;6128342;23;20049;-80
2021/11/21 02:52:45;;;;;;;13.48;2.28;;;9.40;99.90;;;;;;6103398;23;20434;-80
2021/11/21 02:55:11;;;;;;;12.23;1.60;;;9.40;99.90;;;;;;6127090;23;20040;-80
2021/11/21 02:57:37;;;;;;;20.30;2.03;;;9.40;99.90;;;;;;6103214;23;20025;-80
2021/11/21 03:00:10;;;;;;;11.77;1.50;;;9.50;99.90;;;;;;6127402;23;20024;-80
2021/11/21 03:02:39;;;;;;;14.18;1.70;;;9.40;99.90;;;;;;6102605;23;20013;-80
2021/11/21 03:05:05;;;;;;;11.38;1.40;;;9.30;99.90;;;;;;6126634;23;20095;-80
2021/11/21 03:07:31;;;;;;;14.43;1.55;;;9.30;99.90;;;;;;6105892;23;20022;-80
2021/11/21 03:09:57;;;;;;;12.73;1.15;;;9.30;99.90;;;;;;6131407;23;20017;-80
2021/11/21 03:12:23;;;;;;;13.07;1.15;;;9.30;99.90;;;;;;6133106;23;20005;-80
2021/11/21 03:14:50;;;;;;;13.07;1.30;;;9.30;99.90;;;;;;6155924;23;20009;-80
2021/11/21 03:17:16;;;;;;;11.07;1.50;;;9.20;99.90;;;;;;6155826;23;20015;-80
2021/11/21 03:19:42;;;;;;;11.95;1.35;;;9.30;99.90;;;;;;6131398;23;20016;-80
2021/11/21 03:22:08;;;;;;;12.80;1.30;;;9.20;99.90;;;;;;6184437;23;20477;-80
2021/11/21 03:24:34;;;;;;;13.90;1.25;;;9.10;99.90;;;;;;6132372;23;20452;-80
2021/11/21 03:27:00;;;;;;;11.02;1.40;;;9.20;99.90;;;;;;6156516;23;20013;-80
2021/11/21 03:29:27;;;;;;;13.95;2.03;;;9.20;99.90;;;;;;6156573;23;20595;-80
2021/11/21 03:31:53;;;;;;;13.10;1.45;;;9.10;99.90;;;;;;6131567;23;20076;-80
2021/11/21 03:34:19;;;;;;;14.40;1.98;;;9.30;99.90;;;;;;6156203;23;20025;-80
2021/11/21 03:36:44;;;;;;;10.65;2.10;;;9.20;99.90;;;;;;6131876;23;20091;-80
2021/11/21 03:39:10;;;;;;;13.68;2.20;;;9.10;99.90;;;;;;6107914;23;20194;-80
2021/11/21 03:41:37;;;;;;;9.43;1.70;;;9.10;99.90;;;;;;6132407;23;20087;-80
2021/11/21 03:44:05;;;;;;;8.07;1.52;;;9.10;99.90;;;;;;6156564;23;20040;-80
2021/11/21 03:46:31;;;;;;;17.33;1.75;;;9.20;99.90;;;;;;6156339;23;20028;-80
2021/11/21 03:48:57;;;;;;;8.30;1.33;;;9.10;99.90;;;;;;6131849;23;20021;-80
2021/11/21 03:51:22;;;;;;;12.15;1.52;;;9.00;99.90;;;;;;6156868;23;20055;-80
2021/11/21 03:53:48;;;;;;;15.05;1.50;;;9.00;99.90;;;;;;6157026;23;20377;-80
2021/11/21 03:56:14;;;;;;;17.88;1.40;;;9.00;99.90;;;;;;6132183;23;20323;-80
2021/11/21 03:58:40;;;;;;;12.48;1.40;;;9.10;99.90;;;;;;6156787;23;20017;-80
2021/11/21 04:01:06;;;;;;;16.40;1.75;;;9.00;99.90;;;;;;6157085;23;20032;-80
2021/11/21 04:03:32;;;;;;;14.38;1.67;;;9.00;99.90;;;;;;6131170;23;20069;-80
2021/11/21 04:05:57;;;;;;;14.88;1.40;;;9.00;99.90;;;;;;6184046;23;20114;-80
2021/11/21 04:08:23;;;;;;;15.00;1.63;;;9.00;99.90;;;;;;6165831;23;20429;-80
2021/11/21 04:10:49;;;;;;;14.52;1.50;;;9.00;99.90;;;;;;6182611;23;20087;-80
2021/11/21 04:13:14;;;;;;;7.05;1.40;;;9.00;99.90;;;;;;6181525;23;20071;-81
2021/11/21 04:15:40;;;;;;;9.68;1.40;;;9.00;99.90;;;;;;6182551;23;20016;-81
2021/11/21 04:18:08;;;;;;;11.13;1.77;;;9.00;99.90;;;;;;6181457;23;20027;-81
2021/11/21 04:20:35;;;;;;;14.52;1.80;;;9.00;99.90;;;;;;6181762;23;20099;-81
2021/11/21 04:23:00;;;;;;;13.27;1.70;;;8.90;99.90;;;;;;6181918;23;20106;-80
2021/11/21 04:25:26;;;;;;;15.20;1.98;;;8.90;99.90;;;;;;6182064;23;20017;-80
2021/11/21 04:27:52;;;;;;;8.48;1.25;;;8.90;99.90;;;;;;6156149;23;20013;-80
2021/11/21 04:30:19;;;;;;;14.18;1.67;;;8.90;99.90;;;;;;6182854;23;20025;-80
2021/11/21 04:32:46;;;;;;;16.90;1.58;;;8.90;99.90;;;;;;6156944;23;20342;-80
2021/11/21 04:35:14;;;;;;;13.77;1.50;;;8.90;99.90;;;;;;6181620;23;20009;-80
2021/11/21 04:37:41;;;;;;;13.82;1.77;;;8.80;99.90;;;;;;6182054;23;20013;-80
2021/11/21 04:40:08;;;;;;;12.00;2.00;;;8.80;99.90;;;;;;6181817;23;20337;-80
2021/11/21 04:42:35;;;;;;;18.45;1.95;;;8.80;99.90;;;;;;6183844;23;20028;-80
2021/11/21 04:45:00;;;;;;;12.73;1.52;;;8.80;99.90;;;;;;6156318;23;20013;-80
2021/11/21 04:47:26;;;;;;;14.93;2.10;;;8.80;99.90;;;;;;6181657;23;20317;-80
2021/11/21 04:49:52;;;;;;;18.27;1.70;;;8.70;99.90;;;;;;6180862;23;20782;-80
2021/11/21 04:52:18;;;;;;;14.60;2.00;;;8.70;99.90;;;;;;6181984;23;20056;-80
2021/11/21 04:54:44;;;;;;;12.88;1.90;;;8.90;99.90;;;;;;6181648;23;20020;-81
2021/11/21 04:57:09;;;;;;;18.48;2.35;;;8.60;99.90;;;;;;6155689;23;20013;-81
2021/11/21 04:59:35;;;;;;;15.68;1.75;;;8.60;99.90;;;;;;6181828;23;20016;-81
2021/11/21 05:02:03;;;;;;;19.48;1.85;;;8.60;99.90;;;;;;6180804;23;20099;-81
2021/11/21 05:04:30;;;;;;;15.57;1.85;;;8.60;99.90;;;;;;6180735;23;20020;-81
2021/11/21 05:06:55;;;;;;;23.92;2.50;;;8.60;99.90;;;;;;6181096;23;20048;-80
2021/11/21 05:09:21;;;;;;;15.60;1.73;;;8.50;99.90;;;;;;6181279;23;20339;-81
2021/11/21 05:11:47;;;;;;;18.00;2.05;;;8.50;99.90;;;;;;6181662;23;20066;-81
2021/11/21 05:14:16;;;;;;;25.90;2.15;;;8.50;99.90;;;;;;6181131;23;20013;-81
2021/11/21 05:16:42;;;;;;;21.65;2.63;;;8.40;99.90;;;;;;6156018;23;20505;-81
2021/11/21 05:19:08;;;;;;;25.83;2.10;;;8.40;99.90;;;;;;6181317;23;20049;-81
2021/11/21 05:21:34;;;;;;;25.10;2.80;;;8.40;99.90;;;;;;6181546;23;20017;-81
2021/11/21 05:24:00;;;;;;;27.05;3.28;;;8.30;99.90;;;;;;6181480;23;20045;-81
2021/11/21 05:26:27;;;;;;;16.67;2.40;;;8.30;99.90;;;;;;6156363;23;20025;-81
2021/11/21 05:28:53;;;;;;;24.20;2.63;;;8.20;99.90;;;;;;6155909;23;20372;-81
2021/11/21 05:31:20;;;;;;;20.90;2.28;;;8.30;99.90;;;;;;6155950;23;20013;-81
2021/11/21 05:33:46;;;;;;;18.00;2.25;;;8.20;99.90;;;;;;6182512;23;20021;-81
2021/11/21 05:36:12;;;;;;;21.75;2.00;;;8.20;99.90;;;;;;6157943;23;20028;-81
2021/11/21 05:38:37;;;;;;;18.13;2.13;;;8.10;99.90;;;;;;6158265;23;20021;-80
2021/11/21 05:41:03;;;;;;;18.85;2.08;;;8.00;99.90;;;;;;6183669;23;20147;-79
2021/11/21 05:43:29;;;;;;;16.23;2.80;;;8.00;99.90;;;;;;6184032;23;20061;-80
2021/11/21 05:45:55;;;;;;;18.60;2.13;;;8.00;99.90;;;;;;6185103;23;20048;-80
2021/11/21 05:48:20;;;;;;;16.05;2.00;;;7.90;99.90;;;;;;6181830;23;20020;-80
2021/11/21 05:50:46;;;;;;;18.65;2.45;;;7.90;99.90;;;;;;6183837;23;20441;-80
2021/11/21 05:53:12;;;;;;;15.43;2.08;;;7.80;99.90;;;;;;6158798;23;20115;-80
2021/11/21 05:55:37;;;;;;;25.63;2.45;;;7.70;99.90;;;;;;6185315;23;20390;-80
2021/11/21 05:58:03;;;;;;;17.08;2.00;;;7.70;99.90;;;;;;6157644;23;20017;-80
2021/11/21 06:00:29;;;;;;;26.65;2.80;;;7.60;99.90;;;;;;6158415;23;20096;-80
2021/11/21 06:02:55;;;;;;;25.90;2.13;;;7.60;99.90;;;;;;6157697;23;20035;-80
2021/11/21 06:05:21;;;;;;;20.35;2.20;;;7.50;99.90;;;;;;6158024;23;20127;-80
2021/11/21 06:07:47;;;;;;;21.38;1.90;;;7.50;99.90;;;;;;6157637;23;20098;-80
2021/11/21 06:10:14;;;;;;;19.33;2.50;;;7.40;99.90;;;;;;6183754;23;20262;-80
2021/11/21 06:12:40;;;;;;;12.68;2.10;;;7.40;99.90;;;;;;6158565;23;20020;-80
2021/11/21 06:15:08;;;;;;;18.90;2.20;;;7.40;99.90;;;;;;6183524;23;20009;-80
2021/11/21 06:17:34;;;;;;;23.63;2.28;;;7.30;99.90;;;;;;6183150;23;20460;-80
2021/11/21 06:20:00;;;;;;;20.55;2.53;;;7.30;99.90;;;;;;6182509;23;20486;-80
2021/11/21 06:22:26;;;;;;;19.95;2.78;;;7.20;99.90;;;;;;6183229;23;20103;-80
2021/11/21 06:24:51;;;;;;;18.92;2.00;;;7.20;99.90;;;;;;6183593;23;20028;-80
2021/11/21 06:27:17;;;;;;;13.52;1.95;;;7.10;99.90;;;;;;6182890;23;20017;-80
2021/11/21 06:29:43;;;;;;;14.63;2.00;;;7.00;99.90;;;;;;6183404;23;20144;-80
2021/11/21 06:32:10;;;;;;;14.38;2.47;;;7.00;99.90;;;;;;6156778;23;20052;-80
2021/11/21 06:34:35;;;;;;;25.08;2.30;;;7.00;99.90;;;;;;6157750;23;20017;-80
2021/11/21 06:37:03;;;;;;;19.73;2.28;;;7.00;99.90;;;;;;6157935;23;20013;-80
2021/11/21 06:39:29;;;;;;;20.67;2.40;;;6.90;99.90;;;;;;6182907;23;20096;-80
2021/11/21 06:41:55;;;;;;;10.02;1.80;;;6.90;99.90;;;;;;6158073;23;20036;-80
2021/11/21 06:44:20;;;;;;;20.67;2.30;;;6.90;99.90;;;;;;6181997;23;20374;-80
2021/11/21 06:46:47;;;;;;;23.75;2.58;;;6.90;99.90;;;;;;6157978;23;20017;-78
2021/11/21 06:49:12;;;;;;;16.40;1.70;;;7.10;99.90;;;;;;6157479;23;20047;-78
2021/11/21 06:51:42;;;;;;;17.35;2.10;;;6.90;99.90;;;;;;6183009;23;20021;-78
2021/11/21 06:54:08;;;;;;;18.85;2.65;;;6.90;99.90;;;;;;6158175;23;20009;-81
2021/11/21 06:56:34;;;;;;;25.60;2.55;;;6.90;99.90;;;;;;6158029;23;20009;-79
2021/11/21 06:59:00;;;;;;;17.60;2.05;;;6.90;99.90;;;;;;6183150;23;20028;-79
2021/11/21 07:01:26;;;;;;;14.13;2.05;;;6.80;99.90;;;;;;6157352;23;20016;-79
2021/11/21 07:03:52;;;;;;;20.42;2.28;;;7.40;99.90;;;;;;6157079;23;20095;-81
2021/11/21 07:06:32;;;;;;;22.40;3.05;;;6.80;99.90;;;;;;6182420;23;20017;-79
2021/11/21 07:08:58;;;;;;;20.98;2.30;;;6.80;99.90;;;;;;6133145;23;20021;-79
2021/11/21 07:11:25;;;;;;;18.98;2.58;;;6.70;99.90;;;;;;6182832;23;20307;-78
2021/11/21 07:13:51;;;;;;;21.23;2.55;;;6.70;99.90;;;;;;6157241;23;20017;-78
2021/11/21 07:16:17;;;;;;;19.88;2.47;;;6.70;99.90;;;;;;6180919;23;20647;-78
2021/11/21 07:18:43;;;;;;;25.00;2.20;;;6.70;99.90;;;;;;6183580;23;20087;-78
2021/11/21 07:21:09;;;;;;;27.15;2.72;;;6.70;99.90;;;;;;6181467;23;20097;-78
2021/11/21 07:23:35;;;;;;;16.08;2.28;;;6.60;99.90;;;;;;6181100;23;20052;-78
2021/11/21 07:26:02;;;;;;;33.20;3.00;;;6.70;99.90;;;;;;6155344;23;20029;-78
2021/11/21 07:28:28;;;;;;;24.52;3.00;;;6.60;99.90;;;;;;6180885;23;20020;-79
2021/11/21 07:30:54;;;;;;;41.60;3.55;;;6.50;99.90;;;;;;6155999;23;20017;-78
2021/11/21 07:33:19;;;;;;;34.83;2.10;;;6.40;99.90;;;;;;6180228;23;20009;-79
2021/11/21 07:35:45;;;;;;;30.35;2.80;;;6.40;99.90;;;;;;6181898;23;20020;-78
2021/11/21 07:38:10;;;;;;;42.60;2.90;;;6.40;99.90;;;;;;6155287;23;20079;-78
2021/11/21 07:40:36;;;;;;;73.32;3.22;;;6.30;99.90;;;;;;6182168;23;20013;-78
2021/11/21 07:43:02;;;;;;;24.02;2.17;;;6.50;99.90;;;;;;6154884;23;20029;-78
2021/11/21 07:45:28;;;;;;;54.80;3.40;;;6.20;99.90;;;;;;6156785;23;20039;-78
2021/11/21 07:47:54;;;;;;;34.45;3.15;;;6.20;99.90;;;;;;6179451;23;20360;-76
2021/11/21 07:50:20;;;;;;;33.97;3.17;;;6.20;99.90;;;;;;6182711;23;20012;-79
2021/11/21 07:52:46;;;;;;;23.17;3.35;;;6.10;99.90;;;;;;6184363;23;20036;-80
2021/11/21 07:55:13;;;;;;;24.38;3.25;;;6.10;99.90;;;;;;6157242;23;20009;-80
2021/11/21 07:57:40;;;;;;;15.90;3.58;;;6.10;99.90;;;;;;6157083;23;20339;-79
2021/11/21 08:00:10;;;;;;;22.50;2.97;;;6.10;99.90;;;;;;6182136;23;20048;-80
2021/11/21 08:02:36;;;;;;;30.52;3.63;;;6.10;99.90;;;;;;6179697;23;20017;-80
2021/11/21 08:05:03;;;;;;;12.00;2.65;;;6.10;99.90;;;;;;6155637;23;20020;-80
2021/11/21 08:07:29;;;;;;;18.02;2.65;;;6.10;99.90;;;;;;6180719;23;20076;-81
2021/11/21 08:09:54;;;;;;;17.55;2.30;;;6.50;99.90;;;;;;6155303;23;20100;-79
2021/11/21 08:12:20;;;;;;;19.55;3.20;;;6.10;99.90;;;;;;6131257;23;20105;-80
2021/11/21 08:14:46;;;;;;;19.92;2.42;;;6.10;99.90;;;;;;6157001;23;20009;-79
2021/11/21 08:17:12;;;;;;;22.92;2.72;;;6.00;99.90;;;;;;6156588;23;20060;-78
2021/11/21 08:19:38;;;;;;;21.98;2.70;;;6.10;99.90;;;;;;6156435;23;20116;-79
2021/11/21 08:22:04;;;;;;;17.58;2.00;;;6.10;99.90;;;;;;6157361;23;20067;-79
2021/11/21 08:24:30;;;;;;;21.92;1.95;;;6.10;99.90;;;;;;6132768;23;20075;-78
2021/11/21 08:26:56;;;;;;;16.40;4.00;;;6.20;99.90;;;;;;6155739;23;20326;-80
2021/11/21 08:29:22;;;;;;;24.83;3.45;;;6.20;99.90;;;;;;6155980;23;20132;-77
2021/11/21 08:31:50;;;;;;;25.13;2.67;;;6.30;99.90;;;;;;6155329;23;20091;-78
2021/11/21 08:34:19;;;;;;;30.65;2.80;;;6.30;99.90;;;;;;6132011;23;20009;-83
2021/11/21 08:36:45;;;;;;;20.98;2.42;;;6.40;99.90;;;;;;6157090;23;20013;-78
2021/11/21 08:39:12;;;;;;;17.13;2.25;;;6.40;99.90;;;;;;6156394;23;20087;-79
2021/11/21 08:41:38;;;;;;;34.00;3.75;;;6.60;99.90;;;;;;6157491;23;20013;-78
2021/11/21 08:44:04;;;;;;;29.95;3.72;;;6.40;99.90;;;;;;6183927;23;20482;-77
2021/11/21 08:46:29;;;;;;;19.55;2.53;;;6.40;99.90;;;;;;6156662;23;20023;-78
2021/11/21 08:48:55;;;;;;;13.55;2.55;;;6.50;99.90;;;;;;6181025;23;20017;-81
2021/11/21 08:51:22;;;;;;;20.92;3.15;;;6.50;99.90;;;;;;6130929;23;20468;-80
2021/11/21 08:53:48;;;;;;;20.23;2.20;;;6.50;99.90;;;;;;6155217;23;20096;-80
2021/11/21 08:56:15;;;;;;;14.85;2.38;;;6.50;99.90;;;;;;6155441;23;20052;-81
2021/11/21 08:58:42;;;;;;;20.75;2.90;;;6.50;99.90;;;;;;6130986;23;20032;-81
2021/11/21 09:01:11;;;;;;;16.27;2.20;;;6.60;99.90;;;;;;6130167;23;20451;-82
2021/11/21 09:03:39;;;;;;;12.60;2.20;;;6.70;99.90;;;;;;6129670;23;20024;-77
2021/11/21 09:06:05;;;;;;;21.05;2.10;;;7.20;99.90;;;;;;6130961;23;20024;-78
2021/11/21 09:08:31;;;;;;;22.52;2.47;;;6.80;99.90;;;;;;6165387;23;20017;-78
2021/11/21 09:10:57;;;;;;;23.17;2.53;;;7.10;99.90;;;;;;6179977;23;20096;-78
2021/11/21 09:13:23;;;;;;;17.08;2.25;;;7.50;99.90;;;;;;6154771;23;20042;-78
2021/11/21 09:15:48;;;;;;;18.20;2.25;;;7.10;99.90;;;;;;6155487;23;20029;-78
2021/11/21 09:18:15;;;;;;;14.40;2.17;;;7.10;99.90;;;;;;6154538;23;20096;-78
2021/11/21 09:20:41;;;;;;;15.85;1.88;;;7.10;99.90;;;;;;6154596;23;20017;-80
2021/11/21 09:23:11;;;;;;;20.02;2.10;;;7.30;99.90;;;;;;6180034;23;20075;-83
2021/11/21 09:25:39;;;;;;;22.38;2.25;;;7.40;99.90;;;;;;6157474;23;20073;-80
2021/11/21 09:28:05;;;;;;;23.30;2.20;;;7.30;99.90;;;;;;6155253;23;20341;-80
2021/11/21 09:30:31;;;;;;;12.27;1.98;;;7.40;99.90;;;;;;6155908;23;20024;-82
2021/11/21 09:32:57;;;;;;;20.73;2.38;;;7.50;99.90;;;;;;6179135;23;20108;-80
2021/11/21 09:35:39;;;;;;;19.33;2.30;;;7.50;99.90;;;;;;6154748;23;20044;-81
2021/11/21 09:38:06;;;;;;;18.15;2.03;;;7.70;99.90;;;;;;6157065;23;20449;-83
2021/11/21 09:40:32;;;;;;;25.38;2.15;;;7.90;99.90;;;;;;6157414;23;20468;-82
2021/11/21 09:42:59;;;;;;;13.80;1.92;;;7.40;99.90;;;;;;6157735;23;20174;-81
2021/11/21 09:45:25;;;;;;;17.83;2.65;;;7.90;99.90;;;;;;6182573;23;20302;-80
2021/11/21 09:47:53;;;;;;;15.00;1.63;;;8.30;99.90;;;;;;6154982;23;20017;-82
2021/11/21 09:50:21;;;;;;;9.02;1.60;;;7.90;99.90;;;;;;6153092;23;20113;-81
2021/11/21 09:52:47;;;;;;;13.57;1.88;;;8.00;99.90;;;;;;6154742;23;20024;-80
2021/11/21 09:55:13;;;;;;;15.48;1.67;;;8.60;99.90;;;;;;6155661;23;20074;-81
2021/11/21 09:57:42;;;;;;;11.98;1.98;;;8.50;99.90;;;;;;6179985;23;20279;-81
2021/11/21 10:00:10;;;;;;;15.88;1.70;;;8.40;99.90;;;;;;6156249;23;20025;-81
2021/11/21 10:02:44;;;;;;;11.13;1.48;;;8.60;99.90;;;;;;6179644;23;20483;-79
2021/11/21 10:05:24;;;;;;;13.90;1.85;;;8.70;99.90;;;;;;6179804;23;20013;-81
2021/11/21 10:08:00;;;;;;;16.15;1.80;;;8.70;99.90;;;;;;6179733;23;20017;-81
2021/11/21 10:10:26;;;;;;;19.88;1.80;;;8.70;99.90;;;;;;6180570;23;20104;-80
2021/11/21 10:12:51;;;;;;;14.18;1.83;;;8.70;99.90;;;;;;6156144;23;20064;-80
2021/11/21 10:15:18;;;;;;;10.73;1.58;;;8.80;99.90;;;;;;6154229;23;20009;-81
2021/11/21 10:17:47;;;;;;;14.27;1.90;;;8.80;99.90;;;;;;6181035;23;20116;-81
2021/11/21 10:20:13;;;;;;;12.05;1.85;;;8.90;99.90;;;;;;6157207;23;20107;-80
2021/11/21 10:23:04;;;;;;;11.27;1.27;;;8.90;99.90;;;;;;6183636;23;20048;-80
2021/11/21 10:25:37;;;;;;;15.35;1.73;;;9.10;99.90;;;;;;6182315;23;20024;-78
2021/11/21 10:28:05;;;;;;;9.77;1.52;;;9.20;99.90;;;;;;6183726;23;20020;-80
2021/11/21 10:30:31;;;;;;;11.20;1.65;;;9.30;99.90;;;;;;6183071;23;20021;-79
2021/11/21 10:33:02;;;;;;;11.60;1.92;;;9.50;99.90;;;;;;6181572;23;20016;-80
2021/11/21 10:35:28;;;;;;;15.57;2.38;;;9.70;99.90;;;;;;6182647;23;20031;-79
2021/11/21 10:37:57;;;;;;;11.70;1.70;;;10.00;99.90;;;;;;6158110;23;20453;-80
2021/11/21 10:40:23;;;;;;;12.02;2.50;;;10.10;99.90;;;;;;6157733;23;20117;-79
2021/11/21 10:42:52;;;;;;;9.80;2.08;;;10.10;99.90;;;;;;6182647;23;20020;-80
2021/11/21 10:45:28;;;;;;;12.60;2.35;;;10.00;99.90;;;;;;6182263;23;20013;-79
2021/11/21 10:47:57;;;;;;;11.98;2.00;;;9.70;99.90;;;;;;6156095;23;20091;-82
2021/11/21 10:50:31;;;;;;;9.23;1.65;;;9.70;99.90;;;;;;6182611;23;20321;-81
2021/11/21 10:52:59;;;;;;;11.43;1.30;;;9.50;99.90;;;;;;6155870;23;20100;-82
2021/11/21 10:55:26;;;;;;;9.25;1.52;;;9.40;99.90;;;;;;6181141;23;20010;-80
2021/11/21 10:57:51;;;;;;;7.55;1.20;;;9.40;99.90;;;;;;6159138;23;20017;-81
2021/11/21 11:00:26;;;;;;;9.45;1.10;;;9.40;99.90;;;;;;6158689;23;20021;-83
2021/11/21 11:02:53;;;;;;;16.33;3.05;;;9.50;99.90;;;;;;6158103;23;20020;-83
2021/11/21 11:05:23;;;;;;;14.52;1.42;;;9.50;99.90;;;;;;6182879;23;20084;-81
2021/11/21 11:07:53;;;;;;;12.68;1.58;;;9.60;99.90;;;;;;6176069;23;20075;-82
2021/11/21 11:10:26;;;;;;;12.35;1.40;;;9.70;99.90;;;;;;6128862;23;20326;-82
2021/11/21 11:12:55;;;;;;;9.02;1.10;;;9.70;99.90;;;;;;6155296;23;20075;-83
2021/11/21 11:15:22;;;;;;;6.40;1.20;;;9.70;99.90;;;;;;6155959;23;20029;-82
2021/11/21 11:17:48;;;;;;;9.65;1.52;;;9.80;99.90;;;;;;6104400;23;20013;-83
2021/11/21 11:20:17;;;;;;;9.50;1.50;;;10.40;99.90;;;;;;6129275;23;20342;-81
2021/11/21 11:22:43;;;;;;;6.35;1.70;;;9.90;99.90;;;;;;6103760;23;20036;-83
2021/11/21 11:25:19;;;;;;;10.77;1.30;;;10.00;99.90;;;;;;6155629;23;20013;-83
2021/11/21 11:28:24;;;;;;;9.88;1.15;;;10.20;99.90;;;;;;6128428;23;20022;-81
2021/11/21 11:30:51;;;;;;;8.35;1.27;;;10.20;99.90;;;;;;6127992;23;20403;-85
2021/11/21 11:33:20;;;;;;;10.40;1.13;;;10.90;99.90;;;;;;6126565;23;20286;-84
2021/11/21 11:35:56;;;;;;;9.70;1.55;;;10.30;99.90;;;;;;6128035;23;20060;-82
2021/11/21 11:38:28;;;;;;;6.88;1.45;;;10.30;99.90;;;;;;6104780;23;20029;-83
2021/11/21 11:40:59;;;;;;;8.63;1.33;;;10.20;99.90;;;;;;6129086;23;20030;-82
2021/11/21 11:43:38;;;;;;;11.45;1.55;;;10.50;99.90;;;;;;6128952;23;20319;-83
2021/11/21 11:46:09;;;;;;;9.68;1.55;;;10.00;99.90;;;;;;6127679;23;20080;-81
2021/11/21 11:49:05;;;;;;;10.15;1.13;;;9.90;99.90;;;;;;6102116;23;20107;-82
2021/11/21 11:51:31;;;;;;;4.97;0.93;;;9.80;99.90;;;;;;6039768;23;20336;-80
2021/11/21 11:54:02;;;;;;;7.50;1.13;;;9.60;99.90;;;;;;6040040;23;20015;-82
2021/11/21 11:56:46;;;;;;;6.10;0.98;;;9.30;99.90;;;;;;6040952;23;20033;-85
2021/11/21 11:59:23;;;;;;;9.68;1.40;;;9.30;99.90;;;;;;6017311;23;20443;-82
2021/11/21 12:01:49;;;;;;;13.80;1.40;;;9.30;99.90;;;;;;6039815;23;20057;-83
2021/11/21 12:04:17;;;;;;;10.77;1.27;;;9.30;99.90;;;;;;6015054;23;20355;-81
2021/11/21 12:06:49;;;;;;;9.13;2.03;;;9.40;99.90;;;;;;6041054;23;20018;-81
2021/11/21 12:09:20;;;;;;;9.50;2.40;;;9.50;99.90;;;;;;6062245;23;20085;-80
2021/11/21 12:12:02;;;;;;;13.20;1.10;;;9.80;99.90;;;;;;6097850;23;20602;-81
2021/11/21 12:14:47;;;;;;;7.00;1.80;;;10.00;99.90;;;;;;6097904;23;20010;-80
2021/11/21 12:17:16;;;;;;;7.53;1.13;;;10.00;99.90;;;;;;6096614;23;20113;-82
2021/11/21 12:19:49;;;;;;;9.80;1.80;;;10.00;99.90;;;;;;6096991;23;20022;-79
2021/11/21 12:22:24;;;;;;;14.95;1.63;;;9.90;99.90;;;;;;6073149;23;20022;-81
2021/11/21 12:24:54;;;;;;;11.90;1.80;;;9.80;99.90;;;;;;6073328;23;20014;-80
2021/11/21 12:27:26;;;;;;;8.88;1.40;;;9.70;99.90;;;;;;6101218;23;20018;-79
2021/11/21 12:30:22;;;;;;;11.13;1.60;;;9.90;99.90;;;;;;6155152;23;20031;-81
2021/11/21 12:32:49;;;;;;;9.77;1.38;;;9.60;99.90;;;;;;6089714;23;20018;-81
2021/11/21 12:35:28;;;;;;;12.32;1.65;;;9.60;99.90;;;;;;6043122;23;20387;-81
2021/11/21 12:37:58;;;;;;;11.50;1.70;;;9.40;99.90;;;;;;6044391;23;20010;-81
2021/11/21 12:40:36;;;;;;;8.93;1.20;;;9.40;99.90;;;;;;6068738;23;20455;-81
2021/11/21 12:43:10;;;;;;;6.65;1.52;;;9.40;99.90;;;;;;6044125;23;20050;-82
2021/11/21 12:45:48;;;;;;;9.25;1.33;;;9.60;99.90;;;;;;6045520;23;20018;-81
2021/11/21 12:48:28;;;;;;;13.18;1.77;;;9.70;99.90;;;;;;6043942;23;20105;-82
2021/11/21 12:50:59;;;;;;;9.20;1.30;;;9.80;99.90;;;;;;6069020;23;20101;-82